Milford Center, Ohio
Current Conditions -  °F | °C
As of 4:34 AM on Friday 31 Oct 2014 (Local Time) from KMRT Reporting Station
Overcast Overcast  
Wind Chill: 40°   Ceiling: 4200
Heat Index: 40°   Visibility: 10mi
Dew Point: 34°   Wind: 3mph
Humidity: 78%   Direction: 240°WSW
Pressure: 29.99"   Gusts: NA
Location:  40.18°N, 83.44°W
Report Text: KMRT 310834Z AUTO 24003KT 10SM OVC042 05/01 A2999 RMK AO2 T00470011
Loading
Personal Weather Stations






























Interactive Weather Map
Tropical Storm Tracking
New forecast layout! Learn more

10-Day Weather Forecast

Advertisements
Track Severe Weather on mobile